createdAt,value
2022-12-03T00:02:50.308Z,7.20
2022-12-03T00:07:56.015Z,8.47
2022-12-03T00:13:01.815Z,8.03
2022-12-03T00:18:07.631Z,9.53
2022-12-03T00:23:13.147Z,8.00
2022-12-03T00:28:19.410Z,7.90
2022-12-03T00:33:25.472Z,8.82
2022-12-03T00:38:31.172Z,8.38
2022-12-03T00:43:36.855Z,6.40
2022-12-03T00:48:42.534Z,7.80
2022-12-03T00:53:48.592Z,7.73
2022-12-03T00:58:54.868Z,3.88
2022-12-03T01:04:00.649Z,8.93
2022-12-03T01:09:06.061Z,9.43
2022-12-03T01:14:13.108Z,6.93
2022-12-03T01:19:19.438Z,6.82
2022-12-03T01:24:25.050Z,5.55
2022-12-03T01:29:30.876Z,6.50
2022-12-03T01:34:36.603Z,10.93
2022-12-03T01:39:43.285Z,6.93
2022-12-03T01:44:54.021Z,8.32
2022-12-03T01:50:11.107Z,8.65
2022-12-03T01:55:19.215Z,9.70
2022-12-03T02:00:28.914Z,10.05
2022-12-03T02:05:38.456Z,8.25
2022-12-03T02:10:44.208Z,11.55
2022-12-03T02:15:50.400Z,11.83
2022-12-03T02:21:14.268Z,9.02
2022-12-03T02:26:20.247Z,9.43
2022-12-03T02:31:26.760Z,10.23
2022-12-03T02:36:33.493Z,5.95
2022-12-03T02:41:57.791Z,10.00
2022-12-03T02:47:06.762Z,6.40
2022-12-03T02:52:12.275Z,11.38
2022-12-03T02:57:18.699Z,9.40
2022-12-03T03:02:27.511Z,8.07
2022-12-03T03:07:36.425Z,12.15
2022-12-03T03:12:42.105Z,11.00
2022-12-03T03:17:47.971Z,11.27
2022-12-03T03:22:53.464Z,11.20
2022-12-03T03:27:59.305Z,10.23
2022-12-03T03:33:04.830Z,7.70
2022-12-03T03:38:26.944Z,10.38
2022-12-03T03:43:34.720Z,9.45
2022-12-03T03:48:41.124Z,9.18
2022-12-03T03:53:49.479Z,13.65
2022-12-03T03:58:55.354Z,12.07
2022-12-03T04:04:01.889Z,12.38
2022-12-03T04:09:07.684Z,15.33
2022-12-03T04:14:14.603Z,14.15
2022-12-03T04:19:20.598Z,16.33
2022-12-03T04:24:26.463Z,12.40
2022-12-03T04:29:32.432Z,17.77
2022-12-03T04:34:56.527Z,19.40
2022-12-03T04:40:11.157Z,17.95
2022-12-03T04:45:17.006Z,16.55
2022-12-03T04:50:25.822Z,16.10
2022-12-03T04:55:31.566Z,13.05
2022-12-03T05:00:37.398Z,17.07
2022-12-03T05:05:43.269Z,20.17
2022-12-03T05:10:48.839Z,13.57
2022-12-03T05:15:54.207Z,11.47
2022-12-03T05:20:59.811Z,15.57
2022-12-03T05:26:05.134Z,22.73
2022-12-03T05:31:12.098Z,21.33
2022-12-03T05:36:17.970Z,24.60
2022-12-03T05:41:41.525Z,20.60
2022-12-03T05:46:47.549Z,19.38
2022-12-03T05:51:58.269Z,28.40
2022-12-03T05:57:04.637Z,27.33
2022-12-03T06:02:13.053Z,21.53
2022-12-03T06:07:18.934Z,30.58
2022-12-03T06:12:25.359Z,14.00
2022-12-03T06:17:31.239Z,30.23
2022-12-03T06:22:39.489Z,30.73
2022-12-03T06:27:45.949Z,13.55
2022-12-03T06:32:51.681Z,35.20
2022-12-03T06:37:57.525Z,25.83
2022-12-03T06:43:02.986Z,21.40
2022-12-03T06:48:09.071Z,35.03
2022-12-03T06:53:14.786Z,26.75
2022-12-03T06:58:20.494Z,29.00
2022-12-03T07:03:26.454Z,15.38
2022-12-03T07:08:32.286Z,28.67
2022-12-03T07:13:38.093Z,34.90
2022-12-03T07:18:43.976Z,37.83
2022-12-03T07:23:50.109Z,20.27
2022-12-03T07:28:56.187Z,32.90
2022-12-03T07:34:02.249Z,37.20
2022-12-03T07:44:46.942Z,31.33
2022-12-03T07:50:13.274Z,34.50
2022-12-03T08:00:24.681Z,41.83
2022-12-03T08:05:31.135Z,40.55
2022-12-03T08:10:36.981Z,24.00
2022-12-03T08:15:44.267Z,35.85
2022-12-03T08:20:50.974Z,26.85
2022-12-03T08:26:03.624Z,39.05
2022-12-03T08:31:30.836Z,41.38
2022-12-03T08:36:41.925Z,39.03
2022-12-03T08:42:12.125Z,39.25
2022-12-03T08:47:23.938Z,38.25
2022-12-03T08:52:34.463Z,41.65
2022-12-03T08:57:45.161Z,41.70
2022-12-03T09:02:52.499Z,37.90
2022-12-03T09:07:58.251Z,39.70
2022-12-03T09:13:04.740Z,34.63
2022-12-03T09:18:10.489Z,35.70
2022-12-03T09:23:16.198Z,32.23
2022-12-03T09:28:21.612Z,36.60
2022-12-03T09:33:27.190Z,29.97
2022-12-03T09:38:32.928Z,33.63
2022-12-03T09:49:04.660Z,33.28
2022-12-03T09:59:16.396Z,36.22
2022-12-03T10:04:23.005Z,37.70
2022-12-03T10:09:30.067Z,31.92
2022-12-03T10:14:35.595Z,33.63
2022-12-03T10:19:49.031Z,37.27
2022-12-03T10:25:14.962Z,34.17
2022-12-03T10:30:24.824Z,32.65
2022-12-03T10:35:42.547Z,38.38
2022-12-03T10:47:12.944Z,36.60
2022-12-03T10:52:25.940Z,38.30
2022-12-03T10:57:32.354Z,37.88
2022-12-03T11:02:37.878Z,35.77
2022-12-03T11:07:44.403Z,34.40
2022-12-03T11:13:10.488Z,37.75
2022-12-03T11:18:36.008Z,37.27
2022-12-03T11:23:47.668Z,37.00
2022-12-03T11:28:54.837Z,31.58
2022-12-03T11:34:24.080Z,36.28
2022-12-03T11:39:48.122Z,39.35
2022-12-03T11:45:12.781Z,41.95
2022-12-03T11:50:18.878Z,37.58
2022-12-03T11:55:36.535Z,44.10
2022-12-03T12:00:42.462Z,41.45
2022-12-03T12:05:48.173Z,50.50
2022-12-03T12:10:54.103Z,38.40
2022-12-03T12:16:00.901Z,40.70
2022-12-03T12:21:25.242Z,45.95
2022-12-03T12:26:30.697Z,37.55
2022-12-03T12:31:36.546Z,47.97
2022-12-03T12:36:42.565Z,49.03
2022-12-03T12:41:51.949Z,37.10
2022-12-03T12:46:57.993Z,48.22
2022-12-03T12:52:03.856Z,46.28
2022-12-03T12:57:19.209Z,40.10
2022-12-03T13:02:34.089Z,41.58
2022-12-03T13:07:40.480Z,46.00
2022-12-03T13:17:51.278Z,47.42
2022-12-03T13:22:56.940Z,48.92
2022-12-03T13:28:02.621Z,48.30
2022-12-03T13:33:17.502Z,47.50
2022-12-03T13:38:25.129Z,49.63
2022-12-03T13:43:46.176Z,42.28
2022-12-03T13:48:52.023Z,48.50
2022-12-03T13:53:58.247Z,48.65
2022-12-03T13:59:05.496Z,45.20
2022-12-03T14:04:11.334Z,49.63
2022-12-03T14:09:20.281Z,48.28
2022-12-03T14:14:28.824Z,42.53
2022-12-03T14:19:35.166Z,45.38
2022-12-03T14:29:47.004Z,48.42
2022-12-03T14:34:58.558Z,51.47
2022-12-03T14:40:05.312Z,48.42
2022-12-03T14:45:11.701Z,48.58
2022-12-03T14:55:24.619Z,51.88
2022-12-03T15:00:30.428Z,50.28
2022-12-03T15:05:37.066Z,48.63
2022-12-03T15:10:45.858Z,48.88
2022-12-03T15:15:51.454Z,49.80
2022-12-03T15:20:58.502Z,49.10
2022-12-03T15:26:04.669Z,47.70
2022-12-03T15:31:10.902Z,51.05
2022-12-03T15:36:17.498Z,47.85
2022-12-03T15:41:24.801Z,48.47
2022-12-03T15:46:32.681Z,44.17
2022-12-03T15:51:38.480Z,45.85
2022-12-03T15:56:44.024Z,46.90
2022-12-03T16:01:49.777Z,52.97
2022-12-03T16:06:55.422Z,46.92
2022-12-03T16:12:01.179Z,48.20
2022-12-03T16:17:06.977Z,51.60
2022-12-03T16:22:12.533Z,50.23
2022-12-03T16:27:21.580Z,51.73
2022-12-03T16:32:33.010Z,47.00
2022-12-03T16:37:44.414Z,45.85
2022-12-03T16:42:49.899Z,44.13
2022-12-03T16:47:59.643Z,42.88
2022-12-03T16:53:05.182Z,39.88
2022-12-03T16:58:10.944Z,40.93
2022-12-03T17:03:17.438Z,43.67
2022-12-03T17:08:23.171Z,41.58
2022-12-03T17:13:28.618Z,39.53
2022-12-03T17:18:33.862Z,39.53
2022-12-03T17:23:39.287Z,35.88
2022-12-03T17:28:44.730Z,40.88
2022-12-03T17:33:50.547Z,42.30
2022-12-03T17:38:56.650Z,44.42
2022-12-03T17:44:07.245Z,39.95
2022-12-03T17:49:15.316Z,42.40
2022-12-03T17:54:20.598Z,45.63
2022-12-03T17:59:26.247Z,55.92
2022-12-03T18:04:31.612Z,49.77
2022-12-03T18:09:37.714Z,44.50
2022-12-03T18:14:42.882Z,39.75
2022-12-03T18:19:48.044Z,50.90
2022-12-03T18:24:54.139Z,40.95
2022-12-03T18:29:59.676Z,46.33
2022-12-03T18:35:05.141Z,44.30
2022-12-03T18:40:13.157Z,56.70
2022-12-03T18:45:19.170Z,21.55
2022-12-03T18:50:24.811Z,30.23
2022-12-03T18:55:32.104Z,50.33
2022-12-03T19:00:37.641Z,34.90
2022-12-03T19:05:43.579Z,40.30
2022-12-03T19:10:57.561Z,38.57
2022-12-03T19:16:07.369Z,39.80
2022-12-03T19:21:13.880Z,33.42
2022-12-03T19:26:19.333Z,34.08
2022-12-03T19:31:25.134Z,32.63
2022-12-03T19:36:31.912Z,43.05
2022-12-03T19:41:37.324Z,34.72
2022-12-03T19:46:43.498Z,49.78
2022-12-03T19:51:49.284Z,39.53
2022-12-03T19:56:55.013Z,28.40
2022-12-03T20:02:01.087Z,45.87
2022-12-03T20:07:07.285Z,38.47
2022-12-03T20:12:12.720Z,17.38
2022-12-03T20:17:18.212Z,38.70
2022-12-03T20:22:23.896Z,29.73
2022-12-03T20:27:29.405Z,40.33
2022-12-03T20:32:43.562Z,32.42
2022-12-03T20:37:50.888Z,29.52
2022-12-03T20:42:56.304Z,38.63
2022-12-03T20:48:01.730Z,36.25
2022-12-03T20:53:24.415Z,37.47
2022-12-03T20:58:31.743Z,37.10
2022-12-03T21:03:37.743Z,27.77
2022-12-03T21:08:44.052Z,20.17
2022-12-03T21:18:54.900Z,26.08
2022-12-03T21:24:00.430Z,30.87
2022-12-03T21:29:06.203Z,23.83
2022-12-03T21:34:12.088Z,27.27
2022-12-03T21:39:18.382Z,26.38
2022-12-03T21:44:24.107Z,24.50
2022-12-03T21:49:29.937Z,20.63
2022-12-03T21:54:35.420Z,25.27
2022-12-03T21:59:40.945Z,15.20
2022-12-03T22:04:46.492Z,14.70
2022-12-03T22:09:52.848Z,11.87
2022-12-03T22:14:59.006Z,15.93
2022-12-03T22:20:04.631Z,21.53
2022-12-03T22:25:10.501Z,23.37
2022-12-03T22:30:16.007Z,16.93
2022-12-03T22:35:21.760Z,17.73
2022-12-03T22:40:27.519Z,22.03
2022-12-03T22:45:33.329Z,19.87
2022-12-03T22:50:44.652Z,15.70
2022-12-03T22:56:00.280Z,13.82
2022-12-03T23:01:05.679Z,19.30
2022-12-03T23:06:12.423Z,13.02
2022-12-03T23:11:18.081Z,17.27
2022-12-03T23:16:27.822Z,11.53
2022-12-03T23:21:35.590Z,17.20
2022-12-03T23:26:41.438Z,11.35
2022-12-03T23:31:47.601Z,15.30
2022-12-03T23:36:53.281Z,22.05
2022-12-03T23:41:58.705Z,20.10
2022-12-03T23:47:04.590Z,15.60
2022-12-03T23:52:10.816Z,8.70
2022-12-03T23:57:17.623Z,19.50
